Atlantic Companion — SKPE — position and weather

sailwx.info

Track history (hours):
 
Tides and Currents Weather Stations Pressure Air Temp Water Temp Dewpoint Dewpoint Depression Visibility Wind Speed Wind Dir Waves Ship Positions

Atlantic Companion

Last reported at 2015-May-20 17:31 UTC. Time now 2015-May-28 08:04 UTC.
Position N 39°25' W 070°59'.

Length 292 m; beam 32.3 m; draft 11.6 m.

Type: Cargo ship. MMSI: 265142000.

Date/timePositionNaut miles runAvg speedWind from/ knotsBaromVisibWave heightAir tempDewpointWater temp
2015-May-20 17:31N 39°25' W 070°59'1313.8
2015-May-20 16:32N 39°17' W 071°13'1413.6
2015-May-20 15:30N 39°09' W 071°27'1314.0
2015-May-20 14:33N 39°02' W 071°42'1414.2
2015-May-20 13:33N 38°54' W 071°57'1616.3
2015-May-20 12:33N 38°44' W 072°14'1717.1
2015-May-20 11:32N 38°34' W 072°32'1513.3
2015-May-20 10:24N 38°25' W 072°47'2614.3
2015-May-20 08:34N 38°11' W 073°15'138 3.5
2015-May-18 17:15N 37°56' W 076°09'1317.0
2015-May-18 16:29N 38°08' W 076°14'4217.4
2015-May-18 14:03N 38°50' W 076°24'1016.9
2015-May-18 13:29N 38°59' W 076°23'1213.2
2015-May-18 12:34N 39°11' W 076°27'5 4.7
2015-May-18 11:33N 39°14' W 076°32'0 0.0
2015-May-18 10:33N 39°14' W 076°32'0 0.0
2015-May-18 09:33N 39°14' W 076°32'0 0.0
2015-May-18 08:33N 39°14' W 076°32'0 0.0
2015-May-18 07:33N 39°14' W 076°32'0 0.0
2015-May-18 06:33N 39°14' W 076°32'0 0.0
2015-May-18 05:33N 39°14' W 076°32'0 0.0
2015-May-18 04:33N 39°14' W 076°32'0 0.0
2015-May-18 03:33N 39°14' W 076°32'0 0.0
2015-May-18 02:33N 39°14' W 076°32'0 0.0
2015-May-18 01:33N 39°14' W 076°32'0 0.0
2015-May-18 00:33N 39°14' W 076°32'0 0.0
2015-May-17 23:33N 39°14' W 076°32'0 0.0
2015-May-17 22:33N 39°14' W 076°32'0 0.0
2015-May-17 21:33N 39°14' W 076°32'0 0.0
2015-May-17 20:33N 39°14' W 076°32'0 0.0
2015-May-17 19:33N 39°14' W 076°32'0 0.0
2015-May-17 18:33N 39°14' W 076°32'0 0.0
2015-May-17 17:33N 39°14' W 076°32'4 3.8
2015-May-17 16:33N 39°11' W 076°29'1211.5
2015-May-17 15:33N 39°01' W 076°22'1615.4
2015-May-17 14:29N 38°45' W 076°26'3415.1
2015-May-17 12:14N 38°12' W 076°14'1215.7
2015-May-17 11:30N 38°01' W 076°12'132 7.7
2015-May-16 18:21N 39°24' W 074°01'1315.6
2015-May-16 17:33N 39°36' W 073°56'1615.6
2015-May-16 16:33N 39°51' W 073°50'3216.1
2015-May-16 14:33N 40°23' W 073°49'1313.3
2015-May-16 13:33N 40°32' W 074°01'9 8.6
2015-May-16 12:33N 40°39' W 074°09'1 1.2
2015-May-16 11:33N 40°40' W 074°09'0 0.0
2015-May-16 10:33N 40°40' W 074°09'0 0.0
2015-May-16 09:33N 40°40' W 074°09'0 0.0
2015-May-16 08:33N 40°40' W 074°09'0 0.0
2015-May-16 07:33N 40°40' W 074°09'0 0.0
2015-May-16 06:33N 40°40' W 074°09'0 0.0
2015-May-16 05:33N 40°40' W 074°09'0 0.0
2015-May-16 04:33N 40°40' W 074°09'0 0.0
2015-May-16 03:33N 40°40' W 074°09'0 0.0
2015-May-16 02:33N 40°40' W 074°09'0 0.0
2015-May-16 01:33N 40°40' W 074°09'0 0.0
2015-May-16 00:33N 40°40' W 074°09'0 0.0
2015-May-15 23:33N 40°40' W 074°09'2 1.8
2015-May-15 22:33N 40°41' W 074°08'1 0.6
2015-May-15 21:20N 40°42' W 074°08'0 0.0
2015-May-15 20:29N 40°42' W 074°08'0 0.0
2015-May-15 19:32N 40°42' W 074°08'0 0.0
2015-May-15 18:32N 40°42' W 074°08'0 0.0
2015-May-15 17:32N 40°42' W 074°08'0 0.0
2015-May-15 16:29N 40°42' W 074°08'2 1.6
2015-May-15 15:33N 40°40' W 074°08'4 4.2
2015-May-15 14:33N 40°38' W 074°03'9 9.5
2015-May-15 13:34N 40°30' W 073°57'1312.4
2015-May-15 12:32N 40°27' W 073°41'1616.2
2015-May-15 11:34N 40°29' W 073°20'1716.3
2015-May-15 10:31N 40°30' W 072°58'1616.3
2015-May-15 09:34N 40°31' W 072°37'1716.5
2015-May-15 08:34N 40°31' W 072°16'1716.8
2015-May-15 07:34N 40°31' W 071°53'1716.9
2015-May-15 06:34N 40°31' W 071°31'1716.8
2015-May-15 05:33N 40°32' W 071°09'1716.9
2015-May-15 04:34N 40°32' W 070°47'1717.0
2015-May-15 03:33N 40°32' W 070°24'1817.5
2015-May-15 02:32N 40°33' W 070°01'1616.4
2015-May-15 01:33N 40°33' W 069°40'1515.2
2015-May-15 00:33N 40°34' W 069°20'1515.1
2015-May-14 23:33N 40°39' W 069°01'33215.8
2015-May-14 02:33N 44°23' W 063°28'1413.7
2015-May-14 01:33N 44°36' W 063°33'5 5.2
2015-May-14 00:32N 44°40' W 063°38'0 0.0
2015-May-13 23:32N 44°40' W 063°38'0 0.0
2015-May-13 22:32N 44°40' W 063°38'0 0.0
2015-May-13 21:08N 44°40' W 063°38'0 0.0
2015-May-13 20:23N 44°40' W 063°38'0 0.0
2015-May-13 19:26N 44°40' W 063°38'0 0.0
2015-May-13 18:11N 44°40' W 063°38'0 0.0
2015-May-13 17:29N 44°40' W 063°38'0 0.0
2015-May-13 16:29N 44°40' W 063°38'0 0.2
2015-May-13 15:33N 44°40' W 063°38'5 5.0
2015-May-13 14:33N 44°37' W 063°33'1211.7
2015-May-13 13:32N 44°26' W 063°26'  
Track history (hours):
 
Tides and Currents Weather Stations Pressure Air Temp Water Temp Dewpoint Dewpoint Depression Visibility Wind Speed Wind Dir Waves Ship Positions

Atlantic Companion

Last reported at 2015-May-20 17:31 UTC. Time now 2015-May-28 08:04 UTC.
Position N 39°25' W 070°59'.

Length 292 m; beam 32.3 m; draft 11.6 m.

Type: Cargo ship. MMSI: 265142000.

Date/timePositionNaut miles runAvg speedWind from/ knotsBaromVisibWave heightAir tempDewpointWater temp
2015-May-20 17:31N 39°25' W 070°59'1313.8
2015-May-20 16:32N 39°17' W 071°13'1413.6
2015-May-20 15:30N 39°09' W 071°27'1314.0
2015-May-20 14:33N 39°02' W 071°42'1414.2
2015-May-20 13:33N 38°54' W 071°57'1616.3
2015-May-20 12:33N 38°44' W 072°14'1717.1
2015-May-20 11:32N 38°34' W 072°32'1513.3
2015-May-20 10:24N 38°25' W 072°47'2614.3
2015-May-20 08:34N 38°11' W 073°15'138 3.5
2015-May-18 17:15N 37°56' W 076°09'1317.0
2015-May-18 16:29N 38°08' W 076°14'4217.4
2015-May-18 14:03N 38°50' W 076°24'1016.9
2015-May-18 13:29N 38°59' W 076°23'1213.2
2015-May-18 12:34N 39°11' W 076°27'5 4.7
2015-May-18 11:33N 39°14' W 076°32'0 0.0
2015-May-18 10:33N 39°14' W 076°32'0 0.0
2015-May-18 09:33N 39°14' W 076°32'0 0.0
2015-May-18 08:33N 39°14' W 076°32'0 0.0
2015-May-18 07:33N 39°14' W 076°32'0 0.0
2015-May-18 06:33N 39°14' W 076°32'0 0.0
2015-May-18 05:33N 39°14' W 076°32'0 0.0
2015-May-18 04:33N 39°14' W 076°32'0 0.0
2015-May-18 03:33N 39°14' W 076°32'0 0.0
2015-May-18 02:33N 39°14' W 076°32'0 0.0
2015-May-18 01:33N 39°14' W 076°32'0 0.0
2015-May-18 00:33N 39°14' W 076°32'0 0.0
2015-May-17 23:33N 39°14' W 076°32'0 0.0
2015-May-17 22:33N 39°14' W 076°32'0 0.0
2015-May-17 21:33N 39°14' W 076°32'0 0.0
2015-May-17 20:33N 39°14' W 076°32'0 0.0
2015-May-17 19:33N 39°14' W 076°32'0 0.0
2015-May-17 18:33N 39°14' W 076°32'0 0.0
2015-May-17 17:33N 39°14' W 076°32'4 3.8
2015-May-17 16:33N 39°11' W 076°29'1211.5
2015-May-17 15:33N 39°01' W 076°22'1615.4
2015-May-17 14:29N 38°45' W 076°26'3415.1
2015-May-17 12:14N 38°12' W 076°14'1215.7
2015-May-17 11:30N 38°01' W 076°12'132 7.7
2015-May-16 18:21N 39°24' W 074°01'1315.6
2015-May-16 17:33N 39°36' W 073°56'1615.6
2015-May-16 16:33N 39°51' W 073°50'3216.1
2015-May-16 14:33N 40°23' W 073°49'1313.3
2015-May-16 13:33N 40°32' W 074°01'9 8.6
2015-May-16 12:33N 40°39' W 074°09'1 1.2
2015-May-16 11:33N 40°40' W 074°09'0 0.0
2015-May-16 10:33N 40°40' W 074°09'0 0.0
2015-May-16 09:33N 40°40' W 074°09'0 0.0
2015-May-16 08:33N 40°40' W 074°09'0 0.0
2015-May-16 07:33N 40°40' W 074°09'0 0.0
2015-May-16 06:33N 40°40' W 074°09'0 0.0
2015-May-16 05:33N 40°40' W 074°09'0 0.0
2015-May-16 04:33N 40°40' W 074°09'0 0.0
2015-May-16 03:33N 40°40' W 074°09'0 0.0
2015-May-16 02:33N 40°40' W 074°09'0 0.0
2015-May-16 01:33N 40°40' W 074°09'0 0.0
2015-May-16 00:33N 40°40' W 074°09'0 0.0
2015-May-15 23:33N 40°40' W 074°09'2 1.8
2015-May-15 22:33N 40°41' W 074°08'1 0.6
2015-May-15 21:20N 40°42' W 074°08'0 0.0
2015-May-15 20:29N 40°42' W 074°08'0 0.0
2015-May-15 19:32N 40°42' W 074°08'0 0.0
2015-May-15 18:32N 40°42' W 074°08'0 0.0
2015-May-15 17:32N 40°42' W 074°08'0 0.0
2015-May-15 16:29N 40°42' W 074°08'2 1.6
2015-May-15 15:33N 40°40' W 074°08'4 4.2
2015-May-15 14:33N 40°38' W 074°03'9 9.5
2015-May-15 13:34N 40°30' W 073°57'1312.4
2015-May-15 12:32N 40°27' W 073°41'1616.2
2015-May-15 11:34N 40°29' W 073°20'1716.3
2015-May-15 10:31N 40°30' W 072°58'1616.3
2015-May-15 09:34N 40°31' W 072°37'1716.5
2015-May-15 08:34N 40°31' W 072°16'1716.8
2015-May-15 07:34N 40°31' W 071°53'1716.9
2015-May-15 06:34N 40°31' W 071°31'1716.8
2015-May-15 05:33N 40°32' W 071°09'1716.9
2015-May-15 04:34N 40°32' W 070°47'1717.0
2015-May-15 03:33N 40°32' W 070°24'1817.5
2015-May-15 02:32N 40°33' W 070°01'1616.4
2015-May-15 01:33N 40°33' W 069°40'1515.2
2015-May-15 00:33N 40°34' W 069°20'1515.1
2015-May-14 23:33N 40°39' W 069°01'33215.8
2015-May-14 02:33N 44°23' W 063°28'1413.7
2015-May-14 01:33N 44°36' W 063°33'5 5.2
2015-May-14 00:32N 44°40' W 063°38'0 0.0
2015-May-13 23:32N 44°40' W 063°38'0 0.0
2015-May-13 22:32N 44°40' W 063°38'0 0.0
2015-May-13 21:08N 44°40' W 063°38'0 0.0
2015-May-13 20:23N 44°40' W 063°38'0 0.0
2015-May-13 19:26N 44°40' W 063°38'0 0.0
2015-May-13 18:11N 44°40' W 063°38'0 0.0
2015-May-13 17:29N 44°40' W 063°38'0 0.0
2015-May-13 16:29N 44°40' W 063°38'0 0.2
2015-May-13 15:33N 44°40' W 063°38'5 5.0
2015-May-13 14:33N 44°37' W 063°33'1211.7
2015-May-13 13:32N 44°26' W 063°26'  

Dump ship's entire track history